createdAt,value
2022-08-18T00:01:22.494Z,101402.78
2022-08-18T00:03:57.123Z,101414.09
2022-08-18T00:06:28.602Z,101408.78
2022-08-18T00:08:57.393Z,101412.44
2022-08-18T00:11:24.963Z,101418.09
2022-08-18T00:13:52.762Z,101412.78
2022-08-18T00:16:21.677Z,101412.94
2022-08-18T00:18:49.189Z,101412.09
2022-08-18T00:21:16.956Z,101420.56
2022-08-18T00:23:44.522Z,101418.25
2022-08-18T00:26:12.163Z,101426.38
2022-08-18T00:28:39.699Z,101425.22
2022-08-18T00:31:07.362Z,101417.56
2022-08-18T00:33:36.302Z,101418.41
2022-08-18T00:36:03.934Z,101416.06
2022-08-18T00:38:31.476Z,101414.88
2022-08-18T00:40:59.015Z,101414.88
2022-08-18T00:43:32.938Z,101404.06
2022-08-18T00:46:00.703Z,101410.19
2022-08-18T00:48:30.015Z,101407.34
2022-08-18T00:51:00.578Z,101409.00
2022-08-18T00:53:30.413Z,101409.84
2022-08-18T00:55:59.829Z,101400.19
2022-08-18T00:58:29.999Z,101399.03
2022-08-18T01:00:57.747Z,101394.53
2022-08-18T01:03:25.549Z,101401.03
2022-08-18T01:05:57.137Z,101405.84
2022-08-18T01:08:28.842Z,101397.84
2022-08-18T01:10:57.478Z,101412.81
2022-08-18T01:13:27.726Z,101406.00
2022-08-18T01:15:55.297Z,101402.34
2022-08-18T01:18:40.570Z,101408.81
2022-08-18T01:21:30.392Z,101410.50
2022-08-18T01:23:59.617Z,101402.84
2022-08-18T01:26:26.944Z,101399.19
2022-08-18T01:28:54.922Z,101387.88
2022-08-18T01:31:34.939Z,101397.50
2022-08-18T01:34:02.501Z,101397.03
2022-08-18T01:36:30.127Z,101405.03
2022-08-18T01:38:59.108Z,101398.88
2022-08-18T01:41:30.349Z,101394.75
2022-08-18T01:43:59.128Z,101401.91
2022-08-18T01:46:27.649Z,101402.25
2022-08-18T01:48:55.220Z,101405.44
2022-08-18T01:51:40.279Z,101395.97
2022-08-18T01:54:11.159Z,101393.81
2022-08-18T01:56:38.765Z,101392.84
2022-08-18T01:59:07.116Z,101378.88
2022-08-18T02:01:45.293Z,101387.22
2022-08-18T02:04:34.497Z,101385.41
2022-08-18T02:07:02.541Z,101379.94
2022-08-18T02:09:33.525Z,101386.25
2022-08-18T02:12:02.277Z,101380.47
2022-08-18T02:14:31.300Z,101384.81
2022-08-18T02:17:01.393Z,101374.19
2022-08-18T02:19:33.297Z,101371.69
2022-08-18T02:22:01.147Z,101375.69
2022-08-18T02:24:29.024Z,101366.38
2022-08-18T02:26:58.105Z,101360.22
2022-08-18T02:29:25.654Z,101363.06
2022-08-18T02:31:53.849Z,101362.22
2022-08-18T02:34:21.643Z,101360.22
2022-08-18T02:36:49.185Z,101360.72
2022-08-18T02:39:16.729Z,101363.53
2022-08-18T02:41:44.360Z,101359.56
2022-08-18T02:44:13.386Z,101369.69
2022-08-18T02:46:40.895Z,101369.00
2022-08-18T02:49:09.068Z,101377.66
2022-08-18T02:51:36.914Z,101386.63
2022-08-18T02:54:09.178Z,101390.75
2022-08-18T02:56:40.960Z,101392.06
2022-08-18T02:59:10.901Z,101392.06
2022-08-18T03:01:41.872Z,101397.03
2022-08-18T03:04:10.587Z,101392.22
2022-08-18T03:06:38.713Z,101384.91
2022-08-18T03:09:06.864Z,101393.72
2022-08-18T03:11:34.431Z,101392.06
2022-08-18T03:14:01.968Z,101385.09
2022-08-18T03:16:31.408Z,101391.91
2022-08-18T03:19:01.100Z,101400.38
2022-08-18T03:21:34.868Z,101395.91
2022-08-18T03:24:03.075Z,101386.63
2022-08-18T03:26:37.315Z,101390.25
2022-08-18T03:29:04.893Z,101391.06
2022-08-18T03:31:32.508Z,101392.28
2022-08-18T03:34:01.525Z,101394.72
2022-08-18T03:36:31.868Z,101397.56
2022-08-18T03:39:00.347Z,101402.03
2022-08-18T03:41:59.232Z,101399.22
2022-08-18T03:44:16.502Z,101400.38
2022-08-18T03:46:45.189Z,101402.38
2022-08-18T03:49:14.426Z,101410.84
2022-08-18T03:51:44.043Z,101413.69
2022-08-18T03:54:13.303Z,101419.81
2022-08-18T03:56:42.058Z,101423.47
2022-08-18T03:59:11.153Z,101429.13
2022-08-18T04:01:40.429Z,101423.97
2022-08-18T04:04:09.550Z,101432.94
2022-08-18T04:06:41.162Z,101429.78
2022-08-18T04:09:09.628Z,101436.28
2022-08-18T04:11:38.093Z,101424.97
2022-08-18T04:14:05.823Z,101426.97
2022-08-18T04:16:34.833Z,101431.44
2022-08-18T04:19:04.343Z,101426.63
2022-08-18T04:21:33.143Z,101429.44
2022-08-18T04:24:04.070Z,101430.63
2022-08-18T04:26:31.996Z,101431.78
2022-08-18T04:29:01.036Z,101439.09
2022-08-18T04:31:29.629Z,101440.25
2022-08-18T04:33:58.328Z,101439.44
2022-08-18T04:36:26.019Z,101440.25
2022-08-18T04:38:56.388Z,101439.09
2022-08-18T04:41:27.833Z,101440.75
2022-08-18T04:43:55.823Z,101449.22
2022-08-18T04:46:24.233Z,101447.22
2022-08-18T04:48:52.675Z,101452.06
2022-08-18T04:52:38.821Z,101443.59
2022-08-18T04:54:08.234Z,101452.88
2022-08-18T04:56:38.250Z,101449.22
2022-08-18T04:59:06.624Z,101448.06
2022-08-18T05:01:36.006Z,101449.72
2022-08-18T05:04:03.641Z,101451.38
2022-08-18T05:06:31.805Z,101449.38
2022-08-18T05:09:00.214Z,101448.22
2022-08-18T05:11:28.412Z,101449.06
2022-08-18T05:13:59.054Z,101456.03
2022-08-18T05:16:27.846Z,101454.03
2022-08-18T05:18:56.042Z,101446.38
2022-08-18T05:21:24.433Z,101449.22
2022-08-18T05:23:52.213Z,101457.84
2022-08-18T05:26:20.274Z,101454.69
2022-08-18T05:28:48.575Z,101452.34
2022-08-18T05:31:24.043Z,101443.19
2022-08-18T05:33:52.133Z,101447.34
2022-08-18T05:36:28.926Z,101445.50
2022-08-18T05:39:00.516Z,101437.03
2022-08-18T05:41:29.910Z,101440.84
2022-08-18T05:43:58.170Z,101434.81
2022-08-18T05:46:33.414Z,101443.78
2022-08-18T05:49:00.998Z,101436.63
2022-08-18T05:51:32.129Z,101439.09
2022-08-18T05:54:17.481Z,101437.94
2022-08-18T05:56:49.724Z,101436.44
2022-08-18T05:59:21.237Z,101441.41
2022-08-18T06:01:54.856Z,101443.56
2022-08-18T06:04:27.837Z,101446.88
2022-08-18T06:06:57.849Z,101449.00
2022-08-18T06:09:27.081Z,101455.97
2022-08-18T06:11:58.099Z,101460.94
2022-08-18T06:14:26.004Z,101457.09
2022-08-18T06:16:59.566Z,101461.41
2022-08-18T06:19:31.264Z,101461.66
2022-08-18T06:22:02.361Z,101458.63
2022-08-18T06:24:34.663Z,101459.63
2022-08-18T06:27:07.674Z,101471.53
2022-08-18T06:29:44.359Z,101467.19
2022-08-18T06:32:19.582Z,101461.81
2022-08-18T06:34:56.397Z,101462.50
2022-08-18T06:37:29.424Z,101473.97
2022-08-18T06:39:58.219Z,101476.78
2022-08-18T06:42:30.467Z,101475.97
2022-08-18T06:45:01.562Z,101480.78
2022-08-18T06:47:37.560Z,101475.81
2022-08-18T06:50:06.754Z,101479.13
2022-08-18T06:52:35.978Z,101475.25
2022-08-18T06:55:06.622Z,101482.16
2022-08-18T06:57:35.572Z,101477.66
2022-08-18T07:00:08.094Z,101483.19
2022-08-18T07:02:43.634Z,101478.47
2022-08-18T07:05:19.220Z,101485.69
2022-08-18T07:07:47.395Z,101482.53
2022-08-18T07:10:29.835Z,101484.78
2022-08-18T07:13:06.859Z,101482.69
2022-08-18T07:15:34.443Z,101486.94
2022-08-18T07:18:07.437Z,101477.41
2022-08-18T07:20:42.623Z,101483.13
2022-08-18T07:23:10.839Z,101476.16
2022-08-18T07:25:40.992Z,101472.19
2022-08-18T07:28:08.603Z,101471.91
2022-08-18T07:30:37.804Z,101471.78
2022-08-18T07:33:15.466Z,101476.16
2022-08-18T07:35:45.809Z,101483.75
2022-08-18T07:41:15.476Z,101487.25
2022-08-18T07:43:47.307Z,101492.38
2022-08-18T07:46:18.412Z,101493.16
2022-08-18T07:48:47.811Z,101494.56
2022-08-18T07:51:21.863Z,101491.09
2022-08-18T07:53:56.446Z,101505.13
2022-08-18T07:56:29.881Z,101501.63
2022-08-18T07:58:59.750Z,101508.47
2022-08-18T08:01:34.865Z,101508.78
2022-08-18T08:04:11.281Z,101504.16
2022-08-18T08:07:22.944Z,101505.81
2022-08-18T08:09:52.075Z,101513.06
2022-08-18T08:12:24.857Z,101516.31
2022-08-18T08:15:00.419Z,101505.69
2022-08-18T08:17:32.518Z,101513.94
2022-08-18T08:20:15.521Z,101508.72
2022-08-18T08:22:50.433Z,101509.25
2022-08-18T08:25:45.365Z,101501.22
2022-08-18T08:28:17.053Z,101504.66
2022-08-18T08:30:47.425Z,101507.59
2022-08-18T08:33:22.083Z,101506.38
2022-08-18T08:35:53.339Z,101498.16
2022-08-18T08:38:39.858Z,101495.28
2022-08-18T08:41:13.312Z,101496.09
2022-08-18T08:43:43.652Z,101498.97
2022-08-18T08:46:13.741Z,101491.53
2022-08-18T08:48:43.854Z,101501.81
2022-08-18T08:51:18.428Z,101502.63
2022-08-18T08:53:49.130Z,101508.75
2022-08-18T08:56:18.202Z,101511.16
2022-08-18T08:58:49.345Z,101508.53
2022-08-18T09:01:25.028Z,101504.72
2022-08-18T09:03:57.844Z,101502.94
2022-08-18T09:06:32.183Z,101500.75
2022-08-18T09:09:09.377Z,101503.94
2022-08-18T09:11:50.216Z,101509.63
2022-08-18T09:14:32.893Z,101510.97
2022-08-18T09:17:13.110Z,101514.66
2022-08-18T09:19:48.924Z,101509.97
2022-08-18T09:22:27.307Z,101512.75
2022-08-18T09:24:55.798Z,101512.88
2022-08-18T09:27:40.025Z,101514.97
2022-08-18T09:30:34.492Z,101520.25
2022-08-18T09:33:18.652Z,101516.63
2022-08-18T09:35:58.021Z,101516.38
2022-08-18T09:38:48.694Z,101516.06
2022-08-18T09:41:34.427Z,101516.63
2022-08-18T09:44:21.342Z,101515.00
2022-08-18T09:46:56.211Z,101519.94
2022-08-18T09:49:42.371Z,101507.13
2022-08-18T09:52:37.495Z,101510.13
2022-08-18T09:55:27.765Z,101505.00
2022-08-18T09:58:11.395Z,101504.09
2022-08-18T10:00:38.975Z,101516.88
2022-08-18T10:06:19.109Z,101513.75
2022-08-18T10:08:56.433Z,101502.59
2022-08-18T10:11:30.399Z,101507.34
2022-08-18T10:14:08.333Z,101502.72
2022-08-18T10:17:13.230Z,101495.53
2022-08-18T10:19:39.644Z,101499.06
2022-08-18T10:22:09.366Z,101499.56
2022-08-18T10:24:44.315Z,101480.22
2022-08-18T10:27:34.489Z,101486.03
2022-08-18T10:30:05.374Z,101493.16
2022-08-18T10:32:52.175Z,101491.50
2022-08-18T10:35:39.830Z,101493.31
2022-08-18T10:38:14.830Z,101486.78
2022-08-18T10:40:44.483Z,101481.22
2022-08-18T10:43:45.444Z,101478.59
2022-08-18T10:46:25.268Z,101478.44
2022-08-18T10:49:04.317Z,101483.59
2022-08-18T10:51:59.451Z,101483.59
2022-08-18T10:54:35.143Z,101485.03
2022-08-18T10:57:24.047Z,101475.00
2022-08-18T10:59:57.603Z,101484.19
2022-08-18T11:02:40.358Z,101484.56
2022-08-18T11:05:10.946Z,101487.28
2022-08-18T11:07:42.980Z,101481.66
2022-08-18T11:10:58.044Z,101484.28
2022-08-18T11:13:11.048Z,101480.06
2022-08-18T11:15:46.374Z,101493.03
2022-08-18T11:18:28.973Z,101483.72
2022-08-18T11:21:13.105Z,101479.66
2022-08-18T11:23:41.285Z,101480.44
2022-08-18T11:26:14.920Z,101482.06
2022-08-18T11:28:46.046Z,101477.94
2022-08-18T11:31:15.921Z,101481.00
2022-08-18T11:33:47.947Z,101477.88
2022-08-18T11:36:19.163Z,101476.91
2022-08-18T11:38:55.528Z,101477.47
2022-08-18T11:41:33.879Z,101476.47
2022-08-18T11:44:18.860Z,101479.22
2022-08-18T11:46:52.094Z,101475.13
2022-08-18T11:49:24.486Z,101475.97
2022-08-18T11:51:55.554Z,101476.38
2022-08-18T11:54:24.806Z,101475.09
2022-08-18T11:56:53.134Z,101470.81
2022-08-18T12:02:25.408Z,101482.47
2022-08-18T12:04:54.273Z,101473.44
2022-08-18T12:07:28.271Z,101479.25
2022-08-18T12:10:17.074Z,101476.81
2022-08-18T12:12:47.991Z,101473.22
2022-08-18T12:15:29.595Z,101477.38
2022-08-18T12:18:25.937Z,101481.09
2022-08-18T12:20:57.078Z,101472.44
2022-08-18T12:23:25.191Z,101475.00
2022-08-18T12:25:52.701Z,101470.50
2022-08-18T12:28:22.359Z,101474.50
2022-08-18T12:30:56.342Z,101473.13
2022-08-18T12:33:34.472Z,101465.44
2022-08-18T12:36:15.788Z,101461.84
2022-08-18T12:38:52.035Z,101456.81
2022-08-18T12:41:24.170Z,101453.03
2022-08-18T12:43:59.116Z,101450.53
2022-08-18T12:46:27.875Z,101450.53
2022-08-18T12:48:57.096Z,101446.44
2022-08-18T12:51:30.641Z,101437.47
2022-08-18T12:53:59.978Z,101444.97
2022-08-18T12:56:30.435Z,101445.09
2022-08-18T12:58:58.813Z,101441.97
2022-08-18T13:01:28.452Z,101439.63
2022-08-18T13:04:10.876Z,101435.97
2022-08-18T13:06:54.168Z,101424.97
2022-08-18T13:09:42.931Z,101433.59
2022-08-18T13:12:17.237Z,101427.91
2022-08-18T13:14:45.335Z,101419.28
2022-08-18T13:17:32.048Z,101422.56
2022-08-18T13:20:02.059Z,101429.09
2022-08-18T13:22:32.272Z,101420.03
2022-08-18T13:25:00.574Z,101429.06
2022-08-18T13:27:33.501Z,101428.69
2022-08-18T13:30:16.838Z,101429.91
2022-08-18T13:32:58.969Z,101441.00
2022-08-18T13:35:38.163Z,101430.72
2022-08-18T13:38:14.281Z,101443.44
2022-08-18T13:40:48.318Z,101440.59
2022-08-18T13:43:17.471Z,101440.63
2022-08-18T13:45:48.044Z,101440.63
2022-08-18T13:48:20.743Z,101441.00
2022-08-18T13:50:52.727Z,101438.94
2022-08-18T13:53:21.900Z,101444.28
2022-08-18T13:55:49.965Z,101438.16
2022-08-18T13:58:20.728Z,101436.53
2022-08-18T14:00:51.606Z,101436.13
2022-08-18T14:03:42.478Z,101433.28
2022-08-18T14:06:09.591Z,101432.47
2022-08-18T14:08:40.930Z,101432.88
2022-08-18T14:11:09.586Z,101444.78
2022-08-18T14:13:38.075Z,101449.28
2022-08-18T14:16:06.259Z,101453.00
2022-08-18T14:18:39.073Z,101459.16
2022-08-18T14:21:24.553Z,101460.72
2022-08-18T14:24:14.189Z,101466.00
2022-08-18T14:26:51.366Z,101461.81
2022-08-18T14:29:46.891Z,101460.56
2022-08-18T14:32:07.258Z,101462.63
2022-08-18T14:34:35.014Z,101469.19
2022-08-18T14:37:03.696Z,101461.75
2022-08-18T14:39:32.651Z,101462.56
2022-08-18T14:42:03.001Z,101460.47
2022-08-18T14:44:32.537Z,101460.50
2022-08-18T14:47:00.660Z,101467.38
2022-08-18T14:49:31.311Z,101464.81
2022-08-18T14:51:59.261Z,101462.28
2022-08-18T14:54:28.529Z,101467.19
2022-08-18T14:56:59.831Z,101461.41
2022-08-18T14:59:28.456Z,101458.03
2022-08-18T15:01:56.794Z,101458.75
2022-08-18T15:04:24.698Z,101455.03
2022-08-18T15:06:56.161Z,101460.22
2022-08-18T15:09:27.312Z,101465.56
2022-08-18T15:11:56.176Z,101457.91
2022-08-18T15:14:26.758Z,101468.88
2022-08-18T15:17:00.928Z,101455.34
2022-08-18T15:19:59.103Z,101463.94
2022-08-18T15:22:33.473Z,101459.47
2022-08-18T15:25:18.542Z,101462.72
2022-08-18T15:27:52.392Z,101453.31
2022-08-18T15:30:23.104Z,101450.88
2022-08-18T15:32:51.271Z,101446.78
2022-08-18T15:35:19.650Z,101442.34
2022-08-18T15:37:48.647Z,101453.03
2022-08-18T15:40:21.607Z,101447.69
2022-08-18T15:43:01.457Z,101451.81
2022-08-18T15:45:35.308Z,101447.72
2022-08-18T15:48:03.651Z,101449.75
2022-08-18T15:50:31.847Z,101445.69
2022-08-18T15:53:00.722Z,101449.31
2022-08-18T15:55:35.745Z,101441.06
2022-08-18T15:58:03.602Z,101450.47
2022-08-18T16:00:42.195Z,101458.72
2022-08-18T16:03:12.105Z,101457.06
2022-08-18T16:05:41.735Z,101453.75
2022-08-18T16:08:11.790Z,101451.25
2022-08-18T16:10:40.454Z,101438.09
2022-08-18T16:13:08.601Z,101452.38
2022-08-18T16:15:37.999Z,101433.16
2022-08-18T16:18:09.498Z,101430.34
2022-08-18T16:20:37.498Z,101421.31
2022-08-18T16:23:05.395Z,101410.66
2022-08-18T16:25:33.316Z,101409.00
2022-08-18T16:28:01.453Z,101417.97
2022-08-18T16:30:29.424Z,101421.25
2022-08-18T16:33:02.689Z,101419.94
2022-08-18T16:35:32.192Z,101414.97
2022-08-18T16:38:03.259Z,101405.03
2022-08-18T16:40:31.562Z,101404.56
2022-08-18T16:43:00.589Z,101404.75
2022-08-18T16:45:28.387Z,101412.81
2022-08-18T16:47:56.454Z,101402.50
2022-08-18T16:50:25.377Z,101399.56
2022-08-18T16:52:54.429Z,101401.13
2022-08-18T16:55:22.037Z,101399.41
2022-08-18T16:58:07.295Z,101399.25
2022-08-18T17:00:55.006Z,101395.88
2022-08-18T17:03:40.933Z,101392.47
2022-08-18T17:06:09.517Z,101393.56
2022-08-18T17:08:39.039Z,101386.06
2022-08-18T17:11:08.551Z,101378.16
2022-08-18T17:13:36.711Z,101374.72
2022-08-18T17:16:04.641Z,101374.22
2022-08-18T17:18:32.240Z,101375.44
2022-08-18T17:21:02.458Z,101373.28
2022-08-18T17:23:30.050Z,101368.72
2022-08-18T17:25:59.795Z,101368.22
2022-08-18T17:28:30.758Z,101377.50
2022-08-18T17:31:02.667Z,101378.97
2022-08-18T17:33:33.160Z,101378.00
2022-08-18T17:36:03.997Z,101372.91
2022-08-18T17:38:36.403Z,101371.47
2022-08-18T17:41:07.291Z,101376.47
2022-08-18T17:43:35.958Z,101387.34
2022-08-18T17:46:06.153Z,101388.75
2022-08-18T17:48:36.056Z,101383.31
2022-08-18T17:51:25.022Z,101388.78
2022-08-18T17:53:52.563Z,101391.81
2022-08-18T17:56:24.282Z,101389.56
2022-08-18T17:59:45.876Z,101392.28
2022-08-18T18:02:09.472Z,101387.19
2022-08-18T18:04:56.193Z,101388.19
2022-08-18T18:07:25.157Z,101388.84
2022-08-18T18:09:56.968Z,101392.28
2022-08-18T18:12:28.417Z,101387.53
2022-08-18T18:14:56.503Z,101390.97
2022-08-18T18:17:26.368Z,101389.13
2022-08-18T18:19:56.472Z,101383.25
2022-08-18T18:22:25.992Z,101388.41
2022-08-18T18:24:54.903Z,101386.56
2022-08-18T18:27:32.001Z,101389.22
2022-08-18T18:30:01.997Z,101391.06
2022-08-18T18:32:31.201Z,101387.94
2022-08-18T18:35:03.693Z,101379.25
2022-08-18T18:37:33.071Z,101386.38
2022-08-18T18:40:02.326Z,101387.84
2022-08-18T18:42:32.794Z,101396.19
2022-08-18T18:45:01.398Z,101398.00
2022-08-18T18:47:34.851Z,101391.75
2022-08-18T18:50:07.162Z,101384.66
2022-08-18T18:52:42.194Z,101389.31
2022-08-18T18:55:14.739Z,101387.09
2022-08-18T18:57:49.199Z,101388.56
2022-08-18T19:00:20.881Z,101383.84
2022-08-18T19:03:03.691Z,101389.31
2022-08-18T19:05:35.244Z,101389.50
2022-08-18T19:08:07.972Z,101399.09
2022-08-18T19:10:37.517Z,101402.16
2022-08-18T19:13:10.521Z,101388.97
2022-08-18T19:15:40.120Z,101390.75
2022-08-18T19:18:22.981Z,101394.16
2022-08-18T19:22:01.948Z,101387.09
2022-08-18T19:23:44.809Z,101392.06
2022-08-18T19:26:13.565Z,101393.50
2022-08-18T19:29:12.133Z,101399.78
2022-08-18T19:31:36.183Z,101407.22
2022-08-18T19:34:08.530Z,101408.28
2022-08-18T19:36:40.504Z,101404.03
2022-08-18T19:39:13.994Z,101397.28
2022-08-18T19:41:45.778Z,101402.38
2022-08-18T19:44:22.020Z,101401.78
2022-08-18T19:46:51.262Z,101404.38
2022-08-18T19:49:23.466Z,101402.94
2022-08-18T19:51:53.931Z,101396.19
2022-08-18T19:54:38.843Z,101392.75
2022-08-18T19:57:13.697Z,101392.97
2022-08-18T19:59:57.244Z,101387.56
2022-08-18T20:02:33.929Z,101388.13
2022-08-18T20:05:10.108Z,101393.19
2022-08-18T20:07:54.870Z,101388.91
2022-08-18T20:10:32.475Z,101389.97
2022-08-18T20:13:14.827Z,101390.19
2022-08-18T20:15:59.073Z,101383.91
2022-08-18T20:18:35.830Z,101379.66
2022-08-18T20:21:22.064Z,101388.72
2022-08-18T20:23:58.700Z,101386.44
2022-08-18T20:26:41.927Z,101385.81
2022-08-18T20:29:11.445Z,101385.72
2022-08-18T20:31:46.168Z,101380.72
2022-08-18T20:34:15.212Z,101378.06
2022-08-18T20:36:43.758Z,101370.63
2022-08-18T20:39:32.183Z,101370.84
2022-08-18T20:41:59.826Z,101369.88
2022-08-18T20:44:38.542Z,101370.44
2022-08-18T20:47:21.059Z,101370.28
2022-08-18T20:49:55.708Z,101367.66
2022-08-18T20:52:29.765Z,101358.22
2022-08-18T20:55:11.356Z,101360.91
2022-08-18T20:57:39.927Z,101354.28
2022-08-18T21:00:13.308Z,101355.31
2022-08-18T21:02:41.688Z,101355.16
2022-08-18T21:05:27.586Z,101353.06
2022-08-18T21:08:03.371Z,101360.72
2022-08-18T21:10:31.462Z,101362.72
2022-08-18T21:12:59.933Z,101348.06
2022-08-18T21:15:29.061Z,101353.72
2022-08-18T21:18:01.420Z,101352.91
2022-08-18T21:20:31.404Z,101345.94
2022-08-18T21:23:04.245Z,101347.94
2022-08-18T21:25:33.507Z,101346.63
2022-08-18T21:28:02.307Z,101345.78
2022-08-18T21:30:30.476Z,101346.94
2022-08-18T21:32:58.063Z,101344.13
2022-08-18T21:35:28.655Z,101340.47
2022-08-18T21:37:58.532Z,101338.47
2022-08-18T21:40:30.573Z,101340.47
2022-08-18T21:42:59.437Z,101340.47
2022-08-18T21:45:29.599Z,101341.16
2022-08-18T21:47:58.842Z,101334.66
2022-08-18T21:50:27.680Z,101341.16
2022-08-18T21:52:57.159Z,101340.66
2022-08-18T21:55:30.172Z,101337.84
2022-08-18T21:58:03.105Z,101341.03
2022-08-18T22:00:32.977Z,101334.88
2022-08-18T22:03:12.547Z,101340.88
2022-08-18T22:05:55.082Z,101349.72
2022-08-18T22:08:28.174Z,101348.88
2022-08-18T22:11:59.657Z,101352.88
2022-08-18T22:14:14.019Z,101353.22
2022-08-18T22:16:43.421Z,101356.38
2022-08-18T22:19:13.032Z,101366.03
2022-08-18T22:21:43.332Z,101363.88
2022-08-18T22:24:19.479Z,101367.88
2022-08-18T22:26:50.393Z,101365.38
2022-08-18T22:29:32.482Z,101377.03
2022-08-18T22:32:01.768Z,101368.06
2022-08-18T22:34:31.893Z,101374.06
2022-08-18T22:37:01.028Z,101370.75
2022-08-18T22:39:30.545Z,101366.59
2022-08-18T22:42:00.076Z,101374.25
2022-08-18T22:44:28.320Z,101374.59
2022-08-18T22:46:55.906Z,101377.25
2022-08-18T22:49:24.186Z,101385.25
2022-08-18T22:51:53.230Z,101382.75
2022-08-18T22:54:21.508Z,101384.25
2022-08-18T22:56:53.916Z,101381.75
2022-08-18T22:59:26.916Z,101382.47
2022-08-18T23:01:55.468Z,101377.97
2022-08-18T23:04:25.424Z,101385.97
2022-08-18T23:06:53.722Z,101380.66
2022-08-18T23:09:22.483Z,101375.34
2022-08-18T23:11:50.371Z,101378.84
2022-08-18T23:14:17.933Z,101369.88
2022-08-18T23:16:47.078Z,101374.69
2022-08-18T23:19:15.237Z,101363.22
2022-08-18T23:21:42.821Z,101360.75
2022-08-18T23:24:11.491Z,101359.44
2022-08-18T23:26:40.336Z,101359.78
2022-08-18T23:29:09.332Z,101351.16
2022-08-18T23:31:36.894Z,101357.47
2022-08-18T23:34:06.186Z,101371.94
2022-08-18T23:36:34.376Z,101372.28
2022-08-18T23:39:02.066Z,101367.78
2022-08-18T23:41:29.637Z,101364.47
2022-08-18T23:43:59.740Z,101369.63
2022-08-18T23:46:28.845Z,101369.16
2022-08-18T23:48:57.481Z,101367.81
2022-08-18T23:51:27.832Z,101366.50
2022-08-18T23:53:56.695Z,101370.81
2022-08-18T23:56:24.479Z,101368.00
2022-08-18T23:58:52.060Z,101367.50
